createdAt,value
2023-04-02T00:01:33.218Z,60.53
2023-04-02T00:04:38.134Z,60.95
2023-04-02T00:07:41.170Z,60.94
2023-04-02T00:10:48.475Z,60.83
2023-04-02T00:13:52.195Z,61.35
2023-04-02T00:16:57.073Z,61.95
2023-04-02T00:20:08.191Z,62.36
2023-04-02T00:23:13.534Z,62.62
2023-04-02T00:26:37.150Z,62.40
2023-04-02T00:29:55.754Z,62.88
2023-04-02T00:32:59.713Z,62.96
2023-04-02T00:36:07.990Z,62.97
2023-04-02T00:39:19.299Z,63.29
2023-04-02T00:42:25.272Z,63.33
2023-04-02T00:45:35.771Z,63.51
2023-04-02T00:48:59.034Z,62.64
2023-04-02T00:52:13.252Z,62.86
2023-04-02T00:55:17.965Z,62.95
2023-04-02T00:58:29.992Z,62.59
2023-04-02T01:01:42.598Z,63.34
2023-04-02T01:05:05.599Z,63.07
2023-04-02T01:08:27.546Z,62.68
2023-04-02T01:12:01.072Z,62.46
2023-04-02T01:15:21.487Z,62.65
2023-04-02T01:18:51.377Z,62.25
2023-04-02T01:22:00.747Z,62.72
2023-04-02T01:25:06.537Z,62.13
2023-04-02T01:28:32.065Z,61.77
2023-04-02T01:31:36.882Z,62.33
2023-04-02T01:34:40.338Z,62.41
2023-04-02T01:37:46.767Z,62.12
2023-04-02T01:40:58.721Z,61.99
2023-04-02T01:44:18.591Z,61.93
2023-04-02T01:47:29.063Z,62.06
2023-04-02T01:50:38.452Z,62.41
2023-04-02T01:53:41.300Z,61.89
2023-04-02T01:56:45.779Z,61.36
2023-04-02T01:59:48.748Z,61.11
2023-04-02T02:02:52.185Z,61.47
2023-04-02T02:05:56.805Z,61.98
2023-04-02T02:09:04.522Z,62.37
2023-04-02T02:12:07.453Z,62.71
2023-04-02T02:15:17.169Z,62.70
2023-04-02T02:18:23.558Z,62.68
2023-04-02T02:21:52.901Z,62.58
2023-04-02T02:24:58.720Z,62.32
2023-04-02T02:28:19.099Z,62.54
2023-04-02T02:31:29.269Z,62.90
2023-04-02T02:34:41.613Z,62.86
2023-04-02T02:37:47.763Z,63.25
2023-04-02T02:40:56.686Z,62.76
2023-04-02T02:44:03.067Z,63.09
2023-04-02T02:47:13.933Z,63.47
2023-04-02T02:50:23.723Z,63.58
2023-04-02T02:53:26.941Z,63.25
2023-04-02T02:56:34.450Z,63.34
2023-04-02T02:59:38.380Z,63.44
2023-04-02T03:02:43.518Z,63.40
2023-04-02T03:05:53.017Z,63.31
2023-04-02T03:09:07.574Z,63.84
2023-04-02T03:12:13.750Z,62.74
2023-04-02T03:15:35.546Z,62.81
2023-04-02T03:18:41.666Z,63.33
2023-04-02T03:21:51.807Z,62.88
2023-04-02T03:25:05.956Z,63.51
2023-04-02T03:28:17.790Z,64.24
2023-04-02T03:31:49.793Z,64.61
2023-04-02T03:34:58.209Z,64.23
2023-04-02T03:38:11.865Z,63.98
2023-04-02T03:41:24.812Z,64.05
2023-04-02T03:44:45.962Z,63.33
2023-04-02T03:48:06.143Z,64.18
2023-04-02T03:51:22.070Z,63.39
2023-04-02T03:54:25.502Z,63.80
2023-04-02T03:57:38.418Z,64.02
2023-04-02T04:01:06.598Z,64.37
2023-04-02T04:04:16.611Z,63.72
2023-04-02T04:07:29.729Z,63.94
2023-04-02T04:10:34.383Z,64.31
2023-04-02T04:13:53.653Z,64.70
2023-04-02T04:16:56.855Z,63.99
2023-04-02T04:20:08.265Z,64.75
2023-04-02T04:23:20.038Z,64.78
2023-04-02T04:26:35.812Z,64.53
2023-04-02T04:30:05.869Z,64.48
2023-04-02T04:33:34.615Z,65.50
2023-04-02T04:36:48.053Z,65.19
2023-04-02T04:39:56.772Z,65.08
2023-04-02T04:43:06.076Z,65.43
2023-04-02T04:46:19.496Z,64.77
2023-04-02T04:49:22.738Z,64.32
2023-04-02T04:52:32.237Z,64.72
2023-04-02T04:55:39.721Z,65.17
2023-04-02T04:59:04.176Z,65.03
2023-04-02T05:02:24.106Z,64.62
2023-04-02T05:05:34.558Z,65.37
2023-04-02T05:08:45.436Z,65.61
2023-04-02T05:12:19.368Z,65.45
2023-04-02T05:15:32.177Z,64.70
2023-04-02T05:18:40.381Z,64.13
2023-04-02T05:21:50.408Z,64.11
2023-04-02T05:25:23.388Z,64.42
2023-04-02T05:28:32.073Z,64.19
2023-04-02T05:31:44.146Z,64.71
2023-04-02T05:34:53.206Z,63.94
2023-04-02T05:37:55.881Z,63.26
2023-04-02T05:41:17.329Z,63.42
2023-04-02T05:44:28.569Z,63.46
2023-04-02T05:47:34.316Z,62.70
2023-04-02T05:50:43.339Z,61.69
2023-04-02T05:53:53.682Z,60.83
2023-04-02T05:57:03.530Z,60.51
2023-04-02T06:00:18.131Z,60.12
2023-04-02T06:03:27.475Z,60.27
2023-04-02T06:06:42.606Z,59.69
2023-04-02T06:09:56.152Z,59.40
2023-04-02T06:13:08.634Z,58.60
2023-04-02T06:16:16.691Z,57.72
2023-04-02T06:19:27.514Z,58.35
2023-04-02T06:22:37.930Z,57.02
2023-04-02T06:26:01.780Z,56.22
2023-04-02T06:29:24.880Z,55.89
2023-04-02T06:32:29.600Z,55.82
2023-04-02T06:35:35.996Z,54.81
2023-04-02T06:38:40.911Z,53.78
2023-04-02T06:41:46.735Z,53.45
2023-04-02T06:44:52.478Z,54.16
2023-04-02T06:48:01.997Z,51.58
2023-04-02T06:51:17.851Z,50.95
2023-04-02T06:54:21.773Z,49.95
2023-04-02T06:57:25.083Z,51.16
2023-04-02T07:00:38.485Z,50.65
2023-04-02T07:03:43.005Z,50.09
2023-04-02T07:06:46.799Z,51.60
2023-04-02T07:09:49.983Z,49.01
2023-04-02T07:12:52.914Z,47.99
2023-04-02T07:15:57.427Z,45.60
2023-04-02T07:19:01.302Z,44.37
2023-04-02T07:22:05.782Z,44.21
2023-04-02T07:25:09.633Z,44.15
2023-04-02T07:28:14.038Z,43.81
2023-04-02T07:31:17.237Z,43.88
2023-04-02T07:34:20.054Z,56.08
2023-04-02T07:37:22.846Z,58.03
2023-04-02T07:40:25.737Z,58.89
2023-04-02T07:43:28.399Z,56.02
2023-04-02T07:46:31.111Z,51.00
2023-04-02T07:49:34.041Z,52.28
2023-04-02T07:52:43.895Z,48.18
2023-04-02T07:55:52.466Z,48.44
2023-04-02T07:58:55.484Z,45.44
2023-04-02T08:01:58.838Z,44.57
2023-04-02T08:05:02.606Z,44.46
2023-04-02T08:08:06.084Z,41.45
2023-04-02T08:11:09.735Z,41.36
2023-04-02T08:14:12.609Z,41.50
2023-04-02T08:17:15.948Z,41.27
2023-04-02T08:20:19.458Z,43.05
2023-04-02T08:23:23.099Z,42.21
2023-04-02T08:26:26.098Z,41.88
2023-04-02T08:29:32.323Z,43.56
2023-04-02T08:32:35.903Z,40.53
2023-04-02T08:35:39.589Z,40.73
2023-04-02T08:38:42.337Z,36.78
2023-04-02T08:42:14.595Z,36.37
2023-04-02T08:45:32.379Z,39.34
2023-04-02T08:48:40.758Z,34.42
2023-04-02T08:51:46.207Z,32.78
2023-04-02T08:54:50.426Z,30.82
2023-04-02T08:58:37.848Z,29.54
2023-04-02T09:02:02.708Z,28.39
2023-04-02T09:05:08.251Z,28.07
2023-04-02T09:08:20.661Z,26.20
2023-04-02T09:11:23.130Z,26.47
2023-04-02T09:14:45.257Z,28.69
2023-04-02T09:17:54.200Z,29.84
2023-04-02T09:20:58.207Z,31.07
2023-04-02T09:24:01.871Z,30.98
2023-04-02T09:27:22.550Z,32.21
2023-04-02T09:31:02.203Z,32.47
2023-04-02T09:34:35.353Z,33.32
2023-04-02T09:37:37.967Z,34.86
2023-04-02T09:40:48.870Z,37.54
2023-04-02T09:44:19.173Z,36.34
2023-04-02T09:47:27.363Z,36.08
2023-04-02T09:50:31.782Z,38.89
2023-04-02T09:53:37.363Z,37.88
2023-04-02T09:56:41.220Z,40.81
2023-04-02T09:59:44.434Z,39.35
2023-04-02T10:02:59.537Z,38.51
2023-04-02T10:06:14.894Z,39.76
2023-04-02T10:09:32.538Z,39.07
2023-04-02T10:12:41.150Z,40.42
2023-04-02T10:16:09.420Z,40.30
2023-04-02T10:19:27.833Z,38.12
2023-04-02T10:22:30.810Z,38.78
2023-04-02T10:25:43.138Z,37.53
2023-04-02T10:29:06.771Z,37.32
2023-04-02T10:32:32.299Z,36.79
2023-04-02T10:35:46.219Z,36.40
2023-04-02T10:38:53.265Z,36.97
2023-04-02T10:42:11.206Z,37.21
2023-04-02T10:45:40.002Z,34.03
2023-04-02T10:49:06.031Z,36.05
2023-04-02T10:52:17.698Z,31.98
2023-04-02T10:55:29.009Z,31.97
2023-04-02T10:58:37.642Z,31.20
2023-04-02T11:01:43.314Z,28.12
2023-04-02T11:04:47.059Z,27.64
2023-04-02T11:08:04.363Z,27.84
2023-04-02T11:11:14.374Z,31.29
2023-04-02T11:14:29.754Z,30.84
2023-04-02T11:17:32.934Z,30.70
2023-04-02T11:21:04.783Z,30.33
2023-04-02T11:24:31.755Z,29.02
2023-04-02T11:27:34.586Z,27.22
2023-04-02T11:30:37.926Z,26.16
2023-04-02T11:33:44.999Z,26.15
2023-04-02T11:36:55.466Z,27.59
2023-04-02T11:40:07.834Z,27.55
2023-04-02T11:43:32.808Z,27.72
2023-04-02T11:46:40.678Z,28.94
2023-04-02T11:50:04.465Z,28.00
2023-04-02T11:53:16.306Z,28.49
2023-04-02T11:56:31.962Z,30.18
2023-04-02T11:59:50.736Z,30.90
2023-04-02T12:03:03.579Z,30.54
2023-04-02T12:06:39.917Z,29.72
2023-04-02T12:09:59.080Z,28.59
2023-04-02T12:13:02.037Z,28.43
2023-04-02T12:16:06.634Z,27.98
2023-04-02T12:19:10.002Z,27.14
2023-04-02T12:22:25.053Z,27.56
2023-04-02T12:25:32.820Z,26.58
2023-04-02T12:28:38.044Z,27.87
2023-04-02T12:31:46.500Z,26.04
2023-04-02T12:34:51.334Z,25.68
2023-04-02T12:37:54.398Z,26.89
2023-04-02T12:40:59.825Z,27.62
2023-04-02T12:44:15.554Z,27.97
2023-04-02T12:47:18.476Z,28.37
2023-04-02T12:50:22.963Z,28.72
2023-04-02T12:53:41.207Z,27.99
2023-04-02T12:56:44.827Z,28.65
2023-04-02T12:59:48.052Z,29.55
2023-04-02T13:03:15.005Z,30.56
2023-04-02T13:06:23.215Z,29.07
2023-04-02T13:09:36.174Z,28.71
2023-04-02T13:12:41.145Z,28.70
2023-04-02T13:15:44.407Z,28.06
2023-04-02T13:18:49.142Z,28.41
2023-04-02T13:21:53.095Z,28.40
2023-04-02T13:24:56.360Z,29.00
2023-04-02T13:27:59.248Z,29.73
2023-04-02T13:31:02.246Z,29.39
2023-04-02T13:34:05.067Z,30.86
2023-04-02T13:37:12.226Z,32.26
2023-04-02T13:40:17.913Z,32.21
2023-04-02T13:43:22.957Z,32.44
2023-04-02T13:46:31.159Z,32.20
2023-04-02T13:49:34.061Z,32.03
2023-04-02T13:52:37.387Z,31.55
2023-04-02T13:55:42.465Z,32.31
2023-04-02T13:58:47.981Z,30.90
2023-04-02T14:01:53.361Z,31.14
2023-04-02T14:05:27.338Z,32.60
2023-04-02T14:09:02.185Z,31.68
2023-04-02T14:12:05.080Z,33.13
2023-04-02T14:15:29.752Z,34.44
2023-04-02T14:19:06.766Z,32.99
2023-04-02T14:22:30.468Z,32.65
2023-04-02T14:26:05.520Z,34.41
2023-04-02T14:32:39.043Z,33.98
2023-04-02T14:35:48.623Z,33.31
2023-04-02T14:39:17.583Z,33.25
2023-04-02T14:43:05.126Z,37.29
2023-04-02T14:46:10.606Z,35.70
2023-04-02T14:49:24.251Z,36.79
2023-04-02T14:52:31.667Z,36.65
2023-04-02T14:55:43.623Z,36.32
2023-04-02T14:58:52.677Z,37.32
2023-04-02T15:02:08.924Z,38.48
2023-04-02T15:05:24.485Z,39.65
2023-04-02T15:09:09.356Z,41.08
2023-04-02T15:12:27.749Z,43.23
2023-04-02T15:15:49.006Z,45.16
2023-04-02T15:19:00.711Z,48.96
2023-04-02T15:22:15.765Z,51.46
2023-04-02T15:25:42.898Z,53.35
2023-04-02T15:29:29.018Z,55.00
2023-04-02T15:32:32.542Z,55.02
2023-04-02T15:36:15.700Z,57.29
2023-04-02T15:39:52.467Z,58.74
2023-04-02T15:43:15.466Z,59.37
2023-04-02T15:46:18.345Z,59.94
2023-04-02T15:49:33.682Z,61.10
2023-04-02T15:52:57.592Z,60.42
2023-04-02T15:56:33.838Z,61.68
2023-04-02T15:59:43.070Z,62.80
2023-04-02T16:03:02.638Z,65.15
2023-04-02T16:06:17.519Z,64.13
2023-04-02T16:09:27.369Z,63.86
2023-04-02T16:12:33.537Z,62.66
2023-04-02T16:15:42.481Z,64.21
2023-04-02T16:19:20.929Z,63.71
2023-04-02T16:22:30.040Z,65.56
2023-04-02T16:25:44.937Z,68.55
2023-04-02T16:29:10.066Z,65.44
2023-04-02T16:32:37.771Z,66.72
2023-04-02T16:36:02.536Z,67.96
2023-04-02T16:39:17.543Z,67.12
2023-04-02T16:42:50.788Z,66.63
2023-04-02T16:45:56.196Z,65.08
2023-04-02T16:49:07.267Z,65.17
2023-04-02T16:52:40.656Z,65.20
2023-04-02T16:56:20.104Z,66.53
2023-04-02T17:00:07.755Z,66.74
2023-04-02T17:03:33.234Z,66.49
2023-04-02T17:06:42.160Z,65.58
2023-04-02T17:09:53.272Z,65.78
2023-04-02T17:13:15.497Z,61.78
2023-04-02T17:16:31.144Z,61.88
2023-04-02T17:19:34.105Z,61.11
2023-04-02T17:22:37.025Z,60.43
2023-04-02T17:25:48.187Z,59.73
2023-04-02T17:28:51.577Z,59.02
2023-04-02T17:32:01.356Z,59.99
2023-04-02T17:35:21.958Z,57.89
2023-04-02T17:38:39.792Z,57.19
2023-04-02T17:41:54.959Z,58.36
2023-04-02T17:45:49.428Z,58.67
2023-04-02T17:49:03.920Z,56.79
2023-04-02T17:52:23.191Z,56.51
2023-04-02T17:55:50.587Z,55.33
2023-04-02T17:59:20.961Z,54.30
2023-04-02T18:03:02.188Z,56.06
2023-04-02T18:06:11.608Z,56.14
2023-04-02T18:09:37.291Z,56.20
2023-04-02T18:12:45.943Z,55.35
2023-04-02T18:15:58.313Z,54.91
2023-04-02T18:19:14.959Z,54.82
2023-04-02T18:22:58.288Z,55.25
2023-04-02T18:26:01.192Z,54.73
2023-04-02T18:29:12.306Z,54.86
2023-04-02T18:32:17.811Z,54.21
2023-04-02T18:36:05.328Z,52.51
2023-04-02T18:39:21.729Z,52.56
2023-04-02T18:42:43.194Z,52.06
2023-04-02T18:45:58.870Z,52.39
2023-04-02T18:49:19.607Z,53.12
2023-04-02T18:52:24.869Z,54.06
2023-04-02T18:55:31.460Z,53.13
2023-04-02T18:58:49.803Z,53.50
2023-04-02T19:01:54.878Z,53.08
2023-04-02T19:05:23.059Z,53.75
2023-04-02T19:08:50.955Z,53.39
2023-04-02T19:11:53.884Z,54.28
2023-04-02T19:14:58.990Z,53.07
2023-04-02T19:18:04.984Z,53.35
2023-04-02T19:21:45.649Z,54.14
2023-04-02T19:25:00.580Z,53.07
2023-04-02T19:28:17.651Z,53.09
2023-04-02T19:31:53.242Z,53.86
2023-04-02T19:35:27.051Z,53.69
2023-04-02T19:39:01.000Z,52.88
2023-04-02T19:42:15.757Z,53.16
2023-04-02T19:45:24.394Z,53.38
2023-04-02T19:48:35.706Z,53.63
2023-04-02T19:51:38.556Z,53.47
2023-04-02T19:54:41.594Z,53.43
2023-04-02T19:57:44.576Z,53.81
2023-04-02T20:00:47.504Z,53.75
2023-04-02T20:03:50.513Z,53.64
2023-04-02T20:06:54.372Z,53.66
2023-04-02T20:09:57.259Z,53.59
2023-04-02T20:13:00.070Z,53.08
2023-04-02T20:16:04.685Z,53.68
2023-04-02T20:19:07.686Z,54.22
2023-04-02T20:22:10.725Z,53.78
2023-04-02T20:25:13.842Z,53.49
2023-04-02T20:28:16.693Z,53.53
2023-04-02T20:31:19.633Z,53.43
2023-04-02T20:34:22.652Z,53.93
2023-04-02T20:37:25.709Z,54.28
2023-04-02T20:40:28.778Z,53.65
2023-04-02T20:43:32.074Z,53.67
2023-04-02T20:46:34.766Z,53.52
2023-04-02T20:49:37.846Z,53.78
2023-04-02T20:52:40.922Z,53.42
2023-04-02T20:55:45.857Z,53.51
2023-04-02T20:58:49.272Z,53.50
2023-04-02T21:01:52.098Z,53.98
2023-04-02T21:04:54.930Z,54.19
2023-04-02T21:07:58.091Z,54.12
2023-04-02T21:11:02.802Z,54.37
2023-04-02T21:14:05.754Z,54.56
2023-04-02T21:17:08.888Z,54.57
2023-04-02T21:20:12.568Z,54.49
2023-04-02T21:23:15.997Z,55.34
2023-04-02T21:26:19.042Z,56.63
2023-04-02T21:29:21.933Z,55.98
2023-04-02T21:32:25.079Z,56.48
2023-04-02T21:35:27.942Z,57.04
2023-04-02T21:38:31.186Z,56.07
2023-04-02T21:41:36.733Z,56.52
2023-04-02T21:44:39.618Z,56.13
2023-04-02T21:47:42.448Z,56.05
2023-04-02T21:50:45.268Z,55.14
2023-04-02T21:53:49.235Z,54.98
2023-04-02T21:56:52.747Z,55.17
2023-04-02T21:59:57.013Z,55.28
2023-04-02T22:02:59.941Z,54.41
2023-04-02T22:06:08.097Z,54.13
2023-04-02T22:09:14.361Z,54.07
2023-04-02T22:12:17.142Z,53.27
2023-04-02T22:15:19.997Z,53.22
2023-04-02T22:18:22.869Z,53.64
2023-04-02T22:21:26.341Z,54.18
2023-04-02T22:24:29.394Z,53.50
2023-04-02T22:27:33.363Z,53.68
2023-04-02T22:30:37.750Z,53.50
2023-04-02T22:33:42.120Z,53.58
2023-04-02T22:36:44.902Z,53.31
2023-04-02T22:39:47.793Z,53.29
2023-04-02T22:42:50.792Z,53.15
2023-04-02T22:45:53.770Z,53.45
2023-04-02T22:48:56.974Z,53.22
2023-04-02T22:51:59.875Z,53.14
2023-04-02T22:55:02.853Z,53.06
2023-04-02T22:58:05.810Z,54.23
2023-04-02T23:01:19.423Z,54.01
2023-04-02T23:04:22.235Z,53.46
2023-04-02T23:07:25.068Z,53.14
2023-04-02T23:10:28.836Z,52.56
2023-04-02T23:13:36.831Z,52.72
2023-04-02T23:16:39.645Z,52.43
2023-04-02T23:19:42.674Z,53.01
2023-04-02T23:22:45.560Z,52.31
2023-04-02T23:25:48.394Z,53.10
2023-04-02T23:28:51.429Z,52.05
2023-04-02T23:31:54.269Z,52.09
2023-04-02T23:34:57.282Z,52.12
2023-04-02T23:38:00.128Z,52.29
2023-04-02T23:41:03.192Z,52.42
2023-04-02T23:44:08.749Z,51.67
2023-04-02T23:47:11.560Z,51.04
2023-04-02T23:50:14.544Z,51.19
2023-04-02T23:53:18.725Z,51.70
2023-04-02T23:56:22.485Z,52.69
2023-04-02T23:59:25.485Z,50.75
